Time;durP1;ratioP1;P1;durP2;ratioP2;P2;SDS_P1;SDS_P2;PMS_P1;PMS_P2;Temp;Humidity;BMP_temperature;BMP_pressure;BME280_temperature;BME280_humidity;BME280_pressure;Samples;Min_cycle;Max_cycle;Signal;HPM_P1;HPM_P2
2023/02/13 00:01:48;;;;;;;74.22;6.32;;;;;;;5.51;51.31;97441.91;5077695;28;20398;-69
2023/02/13 00:04:13;;;;;;;42.55;5.18;;;;;;;5.63;51.13;97434.94;5067053;28;20059;-70
2023/02/13 00:06:39;;;;;;;46.25;5.35;;;;;;;5.80;51.03;97426.75;5068032;28;20056;-69
2023/02/13 00:09:04;;;;;;;28.52;4.65;;;;;;;5.53;51.05;97429.41;5071284;28;20073;-70
2023/02/13 00:11:29;;;;;;;65.90;5.43;;;;;;;5.63;50.96;97424.38;5074389;28;20056;-70
2023/02/13 00:13:55;;;;;;;57.08;5.55;;;;;;;5.44;51.79;97418.50;5070940;28;20393;-69
2023/02/13 00:16:20;;;;;;;79.30;5.60;;;;;;;5.77;50.70;97419.00;5075046;28;20068;-69
2023/02/13 00:18:46;;;;;;;40.28;5.35;;;;;;;5.68;50.98;97423.09;5068285;28;20038;-70
2023/02/13 00:21:12;;;;;;;19.17;4.50;;;;;;;5.66;50.72;97419.75;5073230;28;20044;-70
2023/02/13 00:23:37;;;;;;;47.05;4.53;;;;;;;5.53;50.98;97416.19;5068933;28;20065;-70
2023/02/13 00:26:08;;;;;;;71.13;6.78;;;;;;;5.77;50.61;97420.78;5072963;28;20049;-70
2023/02/13 00:28:33;;;;;;;45.47;5.18;;;;;;;5.94;50.43;97423.16;5071117;28;20513;-69
2023/02/13 00:31:10;;;;;;;39.53;5.78;;;;;;;5.96;50.17;97421.25;5072475;28;20016;-70
2023/02/13 00:33:35;;;;;;;41.28;5.57;;;;;;;5.95;50.42;97419.56;5071701;28;20060;-70
2023/02/13 00:36:11;;;;;;;45.47;6.10;;;;;;;6.04;50.23;97411.94;5070835;28;20089;-69
2023/02/13 00:38:37;;;;;;;56.38;6.00;;;;;;;5.99;50.04;97412.28;5075652;28;20065;-70
2023/02/13 00:41:03;;;;;;;60.78;5.88;;;;;;;6.08;49.85;97413.44;5077708;28;20069;-70
2023/02/13 00:43:28;;;;;;;29.40;5.15;;;;;;;5.83;50.39;97401.88;5074606;28;20490;-69
2023/02/13 00:45:54;;;;;;;21.90;4.55;;;;;;;5.90;49.99;97405.81;5074262;28;20094;-70
2023/02/13 00:48:19;;;;;;;31.70;5.40;;;;;;;5.95;49.73;97416.91;5074617;28;20655;-69
2023/02/13 00:50:45;;;;;;;27.75;4.80;;;;;;;5.57;50.58;97410.63;5075405;28;20048;-69
2023/02/13 00:53:11;;;;;;;30.48;6.13;;;;;;;5.95;49.78;97414.28;5073067;28;20066;-69
2023/02/13 00:55:36;;;;;;;29.15;6.10;;;;;;;6.02;49.74;97417.34;5073648;28;20382;-70
2023/02/13 00:58:02;;;;;;;21.30;5.97;;;;;;;6.02;49.26;97424.44;5073660;28;20047;-70
2023/02/13 01:00:27;;;;;;;76.32;6.85;;;;;;;5.50;50.88;97416.44;5076532;28;20068;-70
2023/02/13 01:02:52;;;;;;;11.40;4.28;;;;;;;5.46;50.51;97418.41;5075570;28;20511;-70
2023/02/13 01:05:18;;;;;;;28.38;6.50;;;;;;;5.85;50.21;97418.50;5072478;28;20092;-69
2023/02/13 01:07:43;;;;;;;27.80;6.47;;;;;;;5.74;50.38;97422.72;5074968;28;20436;-70
2023/02/13 01:10:09;;;;;;;19.55;5.90;;;;;;;5.36;51.04;97423.44;5076637;28;20040;-69
2023/02/13 01:12:34;;;;;;;18.77;6.25;;;;;;;5.63;50.53;97416.44;5073539;28;20516;-70
2023/02/13 01:15:00;;;;;;;21.73;6.32;;;;;;;5.79;49.99;97408.34;5075772;28;20063;-70
2023/02/13 01:17:25;;;;;;;16.42;5.28;;;;;;;5.50;50.57;97411.97;5075229;28;20390;-69
2023/02/13 01:19:51;;;;;;;14.80;4.85;;;;;;;5.00;52.19;97412.50;5075218;28;20343;-69
2023/02/13 01:22:16;;;;;;;26.20;6.30;;;;;;;5.53;51.15;97408.28;5078508;28;20501;-70
2023/02/13 01:24:41;;;;;;;26.30;5.78;;;;;;;5.53;50.74;97403.84;5073489;28;20068;-69
2023/02/13 01:27:07;;;;;;;11.80;4.70;;;;;;;5.21;51.07;97402.38;5073936;28;20065;-70
2023/02/13 01:29:32;;;;;;;21.33;6.15;;;;;;;5.16;51.32;97407.13;5072030;28;20052;-70
2023/02/13 01:31:58;;;;;;;30.60;6.30;;;;;;;5.57;50.57;97402.69;5073783;28;20062;-69
2023/02/13 01:34:23;;;;;;;26.48;6.25;;;;;;;5.45;50.80;97403.50;5075936;28;20054;-70
2023/02/13 01:36:48;;;;;;;35.40;5.53;;;;;;;5.43;50.96;97400.97;5071758;28;20589;-70
2023/02/13 01:39:14;;;;;;;11.80;6.38;;;;;;;5.66;50.23;97393.31;5071601;28;20066;-69
2023/02/13 01:41:39;;;;;;;16.10;6.50;;;;;;;5.66;50.31;97395.97;5075102;28;20056;-70
2023/02/13 01:44:42;;;;;;;33.28;5.25;;;;;;;5.30;50.95;97400.94;5073855;28;20110;-69
2023/02/13 01:47:08;;;;;;;18.60;4.93;;;;;;;5.37;50.44;97393.44;5072674;28;20358;-70
2023/02/13 01:49:34;;;;;;;32.25;6.80;;;;;;;5.44;51.20;97388.63;5070510;28;20442;-70
2023/02/13 01:51:59;;;;;;;14.57;5.90;;;;;;;5.51;50.65;97386.41;5076413;28;20075;-70
2023/02/13 01:54:29;;;;;;;33.53;6.78;;;;;;;5.57;50.64;97388.63;5075595;28;20045;-70
2023/02/13 01:56:57;;;;;;;31.52;6.13;;;;;;;5.52;50.98;97391.59;5071604;28;20126;-69
2023/02/13 01:59:28;;;;;;;25.75;6.82;;;;;;;5.44;50.76;97383.34;5071679;28;20390;-70
2023/02/13 02:01:54;;;;;;;19.45;6.25;;;;;;;5.57;50.50;97380.69;5071712;28;20106;-70
2023/02/13 02:04:31;;;;;;;21.33;6.63;;;;;;;5.73;50.54;97380.53;5070153;28;20254;-70
2023/02/13 02:07:00;;;;;;;26.15;5.97;;;;;;;5.51;50.86;97381.13;5074168;28;20039;-70
2023/02/13 02:09:31;;;;;;;40.38;6.85;;;;;;;4.93;52.33;97382.19;5066761;28;20441;-70
2023/02/13 02:12:00;;;;;;;30.35;5.80;;;;;;;5.21;51.00;97380.41;5069643;28;20059;-70
2023/02/13 02:14:26;;;;;;;33.92;5.20;;;;;;;5.41;50.52;97383.53;5072857;28;20086;-69
2023/02/13 02:16:52;;;;;;;38.13;7.40;;;;;;;5.42;51.01;97375.50;5074066;28;20087;-70
2023/02/13 02:19:39;;;;;;;23.52;7.53;;;;;;;5.32;50.91;97372.63;5071290;28;20086;-70
2023/02/13 02:22:22;;;;;;;16.90;6.38;;;;;;;5.11;51.02;97380.16;5070012;28;20033;-70
2023/02/13 02:25:12;;;;;;;9.50;5.57;;;;;;;5.23;51.06;97378.50;5074388;28;20489;-69
2023/02/13 02:27:47;;;;;;;17.85;6.72;;;;;;;5.33;50.54;97379.59;5075087;28;20622;-70
2023/02/13 02:30:40;;;;;;;16.60;7.82;;;;;;;5.07;50.99;97381.31;5073475;28;20046;-70
2023/02/13 02:33:26;;;;;;;9.35;5.72;;;;;;;5.22;50.67;97380.31;5073329;28;20085;-70
2023/02/13 02:36:22;;;;;;;14.63;7.70;;;;;;;5.48;50.49;97371.63;5074272;28;20121;-70
2023/02/13 02:39:26;;;;;;;9.50;6.43;;;;;;;5.20;50.65;97371.63;5072896;28;20074;-70
2023/02/13 02:42:07;;;;;;;9.15;5.75;;;;;;;5.15;50.75;97376.38;5008648;28;20081;-70
2023/02/13 02:44:45;;;;;;;10.18;7.03;;;;;;;5.30;50.42;97376.28;4997069;28;20122;-70
2023/02/13 02:50:03;;;;;;;8.73;6.00;;;;;;;5.44;49.59;97378.06;5071653;28;20658;-70
2023/02/13 02:52:32;;;;;;;9.13;6.13;;;;;;;5.29;50.19;97380.75;5074458;28;20073;-69
2023/02/13 02:55:13;;;;;;;7.80;5.03;;;;;;;5.13;50.41;97385.34;5073256;28;20068;-69
2023/02/13 03:06:10;;;;;;;10.38;6.95;;;;;;;5.26;49.44;97378.31;5073180;28;20100;-70
2023/02/13 03:14:05;;;;;;;8.85;6.20;;;;;;;5.77;48.78;97382.00;5055522;28;20061;-69
2023/02/13 03:22:22;;;;;;;6.55;4.80;;;;;;;5.60;48.58;97383.13;5053170;28;20415;-70
2023/02/13 03:25:32;;;;;;;6.68;4.50;;;;;;;5.41;49.09;97389.66;5070322;28;20089;-70
2023/02/13 03:30:59;;;;;;;8.57;5.93;;;;;;;5.61;48.47;97385.69;5010381;28;20830;-70
2023/02/13 03:33:58;;;;;;;9.27;6.30;;;;;;;5.58;48.56;97379.78;5053592;28;20114;-70
2023/02/13 03:39:13;;;;;;;7.65;5.28;;;;;;;5.62;48.33;97389.19;5070565;28;20531;-70
2023/02/13 03:41:49;;;;;;;8.95;5.90;;;;;;;5.72;48.43;97384.94;5078881;28;20735;-70
2023/02/13 03:44:44;;;;;;;8.75;5.80;;;;;;;5.45;48.64;97385.84;5049985;28;20270;-70
2023/02/13 03:47:09;;;;;;;10.52;6.07;;;;;;;5.71;48.18;97382.41;5075920;28;20056;-69
2023/02/13 03:52:52;;;;;;;9.43;6.50;;;;;;;5.67;48.13;97394.13;5075230;28;20079;-70
2023/02/13 04:00:59;;;;;;;7.45;5.07;;;;;;;5.55;48.32;97411.69;5063064;28;20493;-70
2023/02/13 04:03:26;;;;;;;9.35;6.97;;;;;;;5.54;48.48;97410.00;5049131;28;20511;-70
2023/02/13 04:05:55;;;;;;;11.85;7.18;;;;;;;5.60;48.44;97413.06;5075621;28;20086;-70
2023/02/13 04:08:20;;;;;;;;;;;;;;;5.66;47.98;97410.94;5069297;28;20071;-70
2023/02/13 04:10:55;;;;;;;9.07;6.70;;;;;;;5.61;48.22;97411.25;5067999;28;19934;-70
2023/02/13 04:13:30;;;;;;;9.45;6.15;;;;;;;5.46;48.53;97407.84;5049836;28;20064;-69
2023/02/13 04:15:58;;;;;;;7.00;4.75;;;;;;;5.45;48.43;97414.09;5073533;28;20077;-70
2023/02/13 04:18:28;;;;;;;9.38;6.05;;;;;;;5.63;48.35;97416.44;5057486;28;20044;-69
2023/02/13 04:20:53;;;;;;;14.15;7.45;;;;;;;5.57;48.60;97420.34;5052254;28;20066;-70
2023/02/13 04:23:18;;;;;;;8.57;5.55;;;;;;;5.57;48.43;97417.69;5072259;28;20052;-70
2023/02/13 04:25:47;;;;;;;9.38;6.78;;;;;;;5.37;48.69;97411.94;5070688;28;20054;-70
2023/02/13 04:28:13;;;;;;;11.85;7.93;;;;;;;5.74;47.94;97406.84;5074775;28;20044;-70
2023/02/13 04:30:38;;;;;;;10.82;7.93;;;;;;;5.64;48.19;97397.84;5074411;28;20073;-70
2023/02/13 04:33:04;;;;;;;11.27;7.70;;;;;;;5.64;47.98;97399.66;5075593;28;20077;-69
2023/02/13 04:35:29;;;;;;;9.00;6.32;;;;;;;5.51;48.53;97396.97;5069865;28;20079;-70
2023/02/13 04:37:55;;;;;;;10.48;7.15;;;;;;;5.27;48.99;97400.28;5068214;28;20069;-70
2023/02/13 04:40:20;;;;;;;9.70;6.95;;;;;;;5.60;48.04;97406.91;5067369;28;20549;-70
2023/02/13 04:42:47;;;;;;;10.55;6.75;;;;;;;5.65;47.58;97396.06;5069990;28;20544;-70
2023/02/13 04:45:13;;;;;;;10.48;7.03;;;;;;;5.68;47.70;97386.09;5070798;28;20041;-69
2023/02/13 04:47:38;;;;;;;11.82;7.40;;;;;;;5.64;47.58;97389.09;5069882;28;20091;-70
2023/02/13 04:50:04;;;;;;;10.23;7.03;;;;;;;5.62;47.50;97389.19;5074285;28;20032;-70
2023/02/13 04:52:29;;;;;;;11.38;6.75;;;;;;;5.56;47.84;97395.72;5074993;28;20079;-71
2023/02/13 04:54:55;;;;;;;9.15;6.38;;;;;;;5.50;47.54;97390.84;5070678;28;20502;-70
2023/02/13 04:57:20;;;;;;;7.35;5.40;;;;;;;5.48;47.30;97387.47;5071382;28;20440;-70
2023/02/13 04:59:46;;;;;;;7.63;6.18;;;;;;;5.45;47.23;97385.84;5078249;28;20077;-70
2023/02/13 05:02:11;;;;;;;9.20;6.03;;;;;;;5.21;47.72;97388.34;5076703;28;20163;-70
2023/02/13 05:04:36;;;;;;;7.15;5.55;;;;;;;5.09;47.62;97375.00;5067286;28;20070;-70
2023/02/13 05:07:02;;;;;;;8.57;5.35;;;;;;;4.82;47.77;97391.63;5065027;28;20271;-70
2023/02/13 05:09:27;;;;;;;8.32;5.90;;;;;;;4.71;47.92;97379.13;5067952;28;20036;-71
2023/02/13 05:11:53;;;;;;;7.80;5.63;;;;;;;4.28;48.79;97380.00;5068975;28;20081;-70
2023/02/13 05:14:18;;;;;;;8.50;6.00;;;;;;;4.32;47.90;97381.50;5071909;28;20046;-70
2023/02/13 05:16:44;;;;;;;8.63;5.90;;;;;;;4.06;48.22;97391.84;5069943;28;20104;-70
2023/02/13 05:19:09;;;;;;;8.65;5.40;;;;;;;3.83;48.32;97387.97;5072548;28;20523;-70
2023/02/13 05:24:19;;;;;;;10.80;6.10;;;;;;;3.44;48.85;97390.22;5077391;28;20139;-71
2023/02/13 05:26:44;;;;;;;10.15;6.50;;;;;;;3.46;49.52;97385.72;5074712;28;20058;-70
2023/02/13 05:29:18;;;;;;;9.45;6.25;;;;;;;3.40;49.24;97383.41;5075848;28;20069;-70
2023/02/13 05:31:56;;;;;;;9.63;6.15;;;;;;;3.23;48.80;97387.03;5074123;28;20542;-70
2023/02/13 05:34:22;;;;;;;11.52;7.85;;;;;;;3.19;49.41;97390.78;5074336;28;20062;-70
2023/02/13 05:36:48;;;;;;;8.70;6.18;;;;;;;3.10;50.04;97406.13;5071902;28;20084;-71
2023/02/13 05:39:14;;;;;;;11.52;6.35;;;;;;;2.99;50.72;97395.41;5074373;28;20425;-70
2023/02/13 05:41:40;;;;;;;9.82;6.68;;;;;;;2.88;51.59;97399.47;5076626;28;20052;-70
2023/02/13 05:44:05;;;;;;;11.85;7.63;;;;;;;2.76;50.08;97392.25;5074073;28;20453;-70
2023/02/13 05:46:31;;;;;;;9.13;6.40;;;;;;;2.72;50.80;97396.81;5072797;28;20093;-70
2023/02/13 05:48:56;;;;;;;10.55;6.78;;;;;;;2.64;51.31;97391.13;5073587;28;20098;-70
2023/02/13 05:51:22;;;;;;;10.07;6.68;;;;;;;2.53;51.24;97397.00;5073809;28;20057;-70
2023/02/13 05:53:47;;;;;;;11.63;7.13;;;;;;;2.41;52.46;97392.41;5076442;28;20048;-71
2023/02/13 05:56:12;;;;;;;13.85;7.97;;;;;;;2.34;51.85;97395.34;5076178;28;20094;-70
2023/02/13 05:58:38;;;;;;;16.08;8.63;;;;;;;2.21;51.94;97392.53;5072164;28;20422;-70
2023/02/13 06:01:03;;;;;;;12.93;7.50;;;;;;;2.15;52.12;97392.88;5074626;28;20079;-70
2023/02/13 06:03:29;;;;;;;10.93;7.35;;;;;;;2.10;52.86;97398.34;5076057;28;20085;-70
2023/02/13 06:05:55;;;;;;;10.02;7.10;;;;;;;2.10;52.41;97395.72;5076226;28;20064;-70
2023/02/13 06:08:20;;;;;;;11.77;6.80;;;;;;;2.08;52.10;97394.94;5076282;28;20214;-70
2023/02/13 06:10:46;;;;;;;10.00;5.82;;;;;;;2.05;52.27;97399.53;5068744;28;20057;-69
2023/02/13 06:13:12;;;;;;;19.55;6.65;;;;;;;1.94;53.29;97395.66;5071108;28;20080;-69
2023/02/13 06:15:38;;;;;;;10.13;6.13;;;;;;;1.90;52.45;97393.31;5072441;28;20135;-70
2023/02/13 06:18:03;;;;;;;11.57;7.57;;;;;;;1.87;52.49;97392.50;5076807;28;20061;-70
2023/02/13 06:20:29;;;;;;;8.77;5.63;;;;;;;1.80;53.36;97393.75;5078863;28;20089;-69
2023/02/13 06:22:54;;;;;;;11.75;7.05;;;;;;;1.72;52.99;97393.31;5074034;28;20077;-70
2023/02/13 06:25:19;;;;;;;13.70;8.43;;;;;;;1.75;52.68;97388.75;5075604;28;20126;-70
2023/02/13 06:27:46;;;;;;;17.17;7.85;;;;;;;1.83;52.44;97388.34;5072915;28;20086;-69
2023/02/13 06:30:12;;;;;;;14.52;6.93;;;;;;;1.80;53.09;97391.13;5073395;28;20099;-70
2023/02/13 06:32:37;;;;;;;14.10;7.40;;;;;;;1.57;52.98;97385.28;5071615;28;20087;-70
2023/02/13 06:35:03;;;;;;;11.10;7.32;;;;;;;1.60;53.09;97390.38;5073594;28;20086;-71
2023/02/13 06:37:28;;;;;;;12.15;6.57;;;;;;;1.73;52.72;97385.34;5069002;28;20461;-70
2023/02/13 06:39:53;;;;;;;14.00;8.15;;;;;;;1.76;52.57;97389.59;5072995;28;20103;-70
2023/02/13 06:42:19;;;;;;;13.80;8.38;;;;;;;1.79;52.62;97393.84;5076115;28;20480;-70
2023/02/13 06:44:44;;;;;;;16.40;9.48;;;;;;;1.81;52.39;97394.63;5073947;28;20086;-71
2023/02/13 06:47:10;;;;;;;19.63;8.07;;;;;;;1.85;52.96;97390.91;5074266;28;20063;-70
2023/02/13 06:49:35;;;;;;;22.67;8.75;;;;;;;1.88;53.03;97394.22;5073308;28;20099;-70
2023/02/13 06:52:00;;;;;;;17.75;8.85;;;;;;;1.93;52.85;97401.84;5070030;28;20086;-71
2023/02/13 06:54:26;;;;;;;39.90;7.88;;;;;;;1.97;53.16;97398.13;5070875;28;20529;-70
2023/02/13 06:56:51;;;;;;;69.47;10.38;;;;;;;1.95;53.74;97401.78;5074498;28;20092;-70
2023/02/13 06:59:17;;;;;;;20.08;8.23;;;;;;;1.97;52.85;97397.28;5068255;28;20044;-70
2023/02/13 07:01:42;;;;;;;16.63;7.85;;;;;;;1.98;53.25;97405.09;5069733;28;20055;-70
2023/02/13 07:04:07;;;;;;;17.10;7.85;;;;;;;2.04;52.99;97406.53;5067819;28;20162;-70
2023/02/13 07:06:33;;;;;;;34.40;9.00;;;;;;;2.05;53.10;97404.78;5077485;28;20055;-70
2023/02/13 07:09:00;;;;;;;22.60;8.35;;;;;;;2.07;53.06;97403.75;5073176;28;20094;-70
2023/02/13 07:11:25;;;;;;;13.20;7.35;;;;;;;2.11;53.20;97407.94;5070486;28;20067;-70
2023/02/13 07:13:51;;;;;;;18.73;8.60;;;;;;;2.17;53.25;97408.56;5075447;28;20404;-70
2023/02/13 07:16:17;;;;;;;19.65;10.07;;;;;;;2.21;52.79;97408.28;5072083;28;20126;-70
2023/02/13 07:18:42;;;;;;;34.53;9.48;;;;;;;2.27;52.82;97412.38;5073744;28;20602;-70
2023/02/13 07:21:08;;;;;;;25.73;10.10;;;;;;;2.28;53.29;97411.44;5070669;28;20069;-70
2023/02/13 07:23:33;;;;;;;50.10;9.85;;;;;;;2.30;52.66;97412.22;5074175;28;20083;-70
2023/02/13 07:25:59;;;;;;;26.55;9.50;;;;;;;2.41;52.00;97410.81;5073552;28;21389;-71
2023/02/13 07:28:25;;;;;;;19.75;9.38;;;;;;;2.40;52.89;97404.69;5066862;28;20668;-70
2023/02/13 07:30:50;;;;;;;17.00;8.63;;;;;;;2.41;52.67;97410.81;5067431;28;20068;-70
2023/02/13 07:33:16;;;;;;;15.32;7.68;;;;;;;2.46;52.68;97403.50;5066099;28;20114;-70
2023/02/13 07:35:48;;;;;;;16.38;9.55;;;;;;;2.53;51.97;97408.34;5069302;28;20383;-70
2023/02/13 07:38:13;;;;;;;15.20;8.60;;;;;;;2.59;52.35;97403.69;5071924;28;20075;-70
2023/02/13 07:40:39;;;;;;;13.00;7.45;;;;;;;2.60;51.55;97401.00;5070441;28;20093;-70
2023/02/13 07:43:04;;;;;;;13.25;8.38;;;;;;;2.56;52.41;97402.09;5072816;28;20063;-70
2023/02/13 07:45:30;;;;;;;11.57;7.78;;;;;;;2.57;52.16;97408.19;5073436;28;20105;-70
2023/02/13 07:47:55;;;;;;;11.07;7.18;;;;;;;2.51;51.72;97404.09;5074574;28;20253;-70
2023/02/13 07:50:21;;;;;;;12.63;8.07;;;;;;;2.68;51.83;97408.44;5067948;28;20077;-71
2023/02/13 07:52:56;;;;;;;11.50;7.50;;;;;;;2.52;52.00;97413.72;5067029;28;20079;-71
2023/02/13 07:55:21;;;;;;;12.73;7.63;;;;;;;2.75;52.31;97407.19;5067320;28;20076;-71
2023/02/13 07:57:47;;;;;;;10.68;7.03;;;;;;;2.88;51.80;97410.00;5074345;28;20063;-71
2023/02/13 08:00:13;;;;;;;8.73;5.78;;;;;;;2.90;52.10;97412.53;5070085;28;20086;-70
2023/02/13 08:02:39;;;;;;;9.65;6.03;;;;;;;3.03;52.42;97407.44;5071874;28;20063;-71
2023/02/13 08:05:05;;;;;;;11.10;6.20;;;;;;;3.14;51.67;97410.28;5067363;28;20069;-71
2023/02/13 08:07:30;;;;;;;12.40;6.25;;;;;;;3.24;52.24;97415.91;5071985;28;20555;-71
2023/02/13 08:12:39;;;;;;;8.95;6.10;;;;;;;3.56;51.97;97415.00;5068820;28;20093;-71
2023/02/13 08:15:05;;;;;;;10.13;6.88;;;;;;;3.75;51.66;97411.31;5072774;28;20071;-70
2023/02/13 08:17:31;;;;;;;10.80;7.30;;;;;;;3.94;50.82;97416.31;5073009;28;20603;-71
2023/02/13 08:19:56;;;;;;;11.27;7.57;;;;;;;4.06;50.88;97417.38;5068013;28;20095;-71
2023/02/13 08:22:22;;;;;;;10.45;7.10;;;;;;;4.23;51.03;97416.38;5074686;28;20085;-70
2023/02/13 08:24:47;;;;;;;13.80;7.90;;;;;;;4.43;51.27;97416.94;5064424;28;20578;-70
2023/02/13 08:27:13;;;;;;;13.02;8.30;;;;;;;4.56;50.43;97420.50;5068912;28;20519;-70
2023/02/13 08:29:38;;;;;;;11.02;7.00;;;;;;;4.69;50.25;97419.72;5067378;28;20048;-70
2023/02/13 08:32:04;;;;;;;10.13;6.90;;;;;;;4.78;50.31;97419.16;5071447;28;20098;-71
2023/02/13 08:34:29;;;;;;;10.82;6.85;;;;;;;4.95;50.48;97420.72;5073769;28;20084;-70
2023/02/13 08:36:55;;;;;;;11.50;7.32;;;;;;;5.09;49.80;97408.44;5075952;28;20077;-70
2023/02/13 08:39:20;;;;;;;11.18;7.13;;;;;;;5.28;49.91;97409.91;5068055;28;20314;-70
2023/02/13 08:41:45;;;;;;;9.75;6.35;;;;;;;5.43;49.52;97408.91;5064605;28;20060;-70
2023/02/13 08:44:11;;;;;;;11.07;7.30;;;;;;;5.59;49.31;97418.44;5066952;28;20062;-70
2023/02/13 08:46:36;;;;;;;10.25;6.65;;;;;;;5.74;49.09;97413.94;5071409;28;20501;-70
2023/02/13 08:49:02;;;;;;;9.80;6.90;;;;;;;5.85;49.09;97418.50;5071248;28;20074;-70
2023/02/13 08:51:27;;;;;;;8.57;5.95;;;;;;;5.96;49.19;97418.59;5069437;28;20485;-71
2023/02/13 08:53:53;;;;;;;9.93;6.20;;;;;;;6.19;48.61;97412.72;5071417;28;20036;-70
2023/02/13 08:56:18;;;;;;;10.80;5.90;;;;;;;6.28;48.19;97416.50;5068963;28;20321;-71
2023/02/13 08:58:46;;;;;;;8.45;5.47;;;;;;;6.39;48.13;97413.94;5072177;28;20051;-71
2023/02/13 09:01:12;;;;;;;10.00;6.47;;;;;;;6.56;47.52;97414.63;5073078;28;20646;-70
2023/02/13 09:03:37;;;;;;;9.02;6.35;;;;;;;6.76;46.67;97421.13;5071951;28;20496;-70
2023/02/13 09:06:03;;;;;;;8.30;5.75;;;;;;;6.85;46.35;97420.50;5074367;28;20362;-70
2023/02/13 09:08:28;;;;;;;7.95;6.05;;;;;;;6.93;46.54;97425.22;5077395;28;20058;-70
2023/02/13 09:10:57;;;;;;;8.13;6.03;;;;;;;7.12;46.31;97427.41;5073637;28;20032;-70
2023/02/13 09:13:23;;;;;;;10.27;6.95;;;;;;;6.64;45.25;97421.03;5072588;28;20036;-70
2023/02/13 09:15:48;;;;;;;11.77;7.78;;;;;;;6.63;44.90;97431.72;5076185;28;20036;-70
2023/02/13 09:18:14;;;;;;;11.30;7.90;;;;;;;6.92;43.74;97426.19;5075753;28;20020;-70
2023/02/13 09:20:39;;;;;;;12.40;8.27;;;;;;;7.07;43.24;97429.50;5078805;28;20036;-70
2023/02/13 09:23:04;;;;;;;13.20;8.27;;;;;;;7.35;43.09;97434.63;5072491;28;20044;-70
2023/02/13 09:25:30;;;;;;;14.35;9.95;;;;;;;7.57;42.10;97422.41;5079229;28;20061;-70
2023/02/13 09:27:55;;;;;;;18.10;10.68;;;;;;;7.66;41.71;97432.34;5076543;28;20405;-70
2023/02/13 09:30:23;;;;;;;17.17;11.32;;;;;;;7.92;41.46;97421.59;5074302;28;20033;-70
2023/02/13 09:32:50;;;;;;;17.05;12.32;;;;;;;8.14;40.81;97427.91;5075092;28;20043;-70
2023/02/13 09:35:16;;;;;;;15.23;10.75;;;;;;;8.22;40.55;97424.66;5068468;28;20117;-70
2023/02/13 09:37:41;;;;;;;17.92;12.02;;;;;;;8.27;40.32;97428.66;5072770;28;20028;-70
2023/02/13 09:40:19;;;;;;;17.65;11.55;;;;;;;8.41;40.39;97432.06;5074349;28;20084;-70
2023/02/13 09:42:44;;;;;;;17.30;11.13;;;;;;;8.40;40.21;97430.38;5072450;28;20028;-70
2023/02/13 09:45:10;;;;;;;13.27;9.13;;;;;;;8.66;39.71;97435.44;5075964;28;20067;-70
2023/02/13 09:47:38;;;;;;;15.45;10.05;;;;;;;8.74;39.78;97434.84;5054782;28;20094;-70
2023/02/13 09:50:09;;;;;;;13.65;9.20;;;;;;;9.08;38.93;97435.66;5076810;28;20031;-70
2023/02/13 09:52:36;;;;;;;10.27;7.38;;;;;;;9.08;38.74;97434.84;5072333;28;20131;-70
2023/02/13 09:55:01;;;;;;;12.27;8.65;;;;;;;9.20;38.81;97436.50;5074540;28;20054;-70
2023/02/13 09:57:34;;;;;;;13.38;8.07;;;;;;;8.96;39.02;97434.00;5073349;28;20396;-70
2023/02/13 10:00:25;;;;;;;9.15;6.40;;;;;;;9.14;38.88;97436.13;5078879;28;20404;-70
2023/02/13 10:02:57;;;;;;;11.40;7.88;;;;;;;9.26;38.23;97442.28;5070532;28;20071;-70
2023/02/13 10:05:41;;;;;;;10.85;7.28;;;;;;;9.37;38.33;97436.91;5072748;28;20451;-70
2023/02/13 10:08:21;;;;;;;10.50;7.57;;;;;;;9.51;37.92;97441.09;5071330;28;20040;-70
2023/02/13 10:10:51;;;;;;;11.05;8.05;;;;;;;9.45;38.40;97436.28;5072282;28;20128;-70
2023/02/13 10:13:32;;;;;;;11.57;7.63;;;;;;;9.37;38.88;97449.34;5073359;28;20040;-70
2023/02/13 10:16:04;;;;;;;10.35;7.32;;;;;;;9.79;37.91;97437.97;5073432;28;20048;-70
2023/02/13 10:18:58;;;;;;;11.60;8.65;;;;;;;9.69;37.35;97436.06;5072037;28;20417;-70
2023/02/13 10:21:27;;;;;;;12.60;8.80;;;;;;;9.80;37.65;97443.16;5073386;28;20112;-70
2023/02/13 10:24:02;;;;;;;11.23;7.20;;;;;;;9.93;37.91;97442.97;5075296;28;20035;-70
2023/02/13 10:26:44;;;;;;;11.05;8.00;;;;;;;10.08;36.87;97438.22;5069783;28;20497;-70
2023/02/13 10:32:10;;;;;;;11.23;7.65;;;;;;;10.20;36.81;97441.63;5075269;28;20089;-70
2023/02/13 10:34:43;;;;;;;9.73;6.80;;;;;;;10.33;36.54;97440.59;5071089;28;20259;-70
2023/02/13 10:37:19;;;;;;;8.45;6.85;;;;;;;10.18;37.17;97440.94;5069712;28;20114;-70
2023/02/13 10:39:47;;;;;;;10.30;7.07;;;;;;;10.31;36.46;97431.91;5067251;28;20379;-70
2023/02/13 10:42:19;;;;;;;9.30;6.68;;;;;;;10.58;35.86;97433.97;5070061;28;20020;-69
2023/02/13 10:44:53;;;;;;;9.70;6.57;;;;;;;10.65;35.90;97430.78;5070318;28;20338;-70
2023/02/13 10:47:32;;;;;;;10.13;7.25;;;;;;;10.77;35.65;97432.38;5072841;28;20074;-70
2023/02/13 10:49:57;;;;;;;10.68;7.40;;;;;;;10.88;36.44;97434.94;5072623;28;20428;-69
2023/02/13 10:52:43;;;;;;;10.67;7.50;;;;;;;11.11;35.03;97426.75;5072332;28;20040;-69
2023/02/13 10:55:12;;;;;;;11.90;6.72;;;;;;;11.29;34.79;97428.75;5051960;28;20032;-70
2023/02/13 10:57:47;;;;;;;8.65;6.40;;;;;;;11.49;36.07;97431.47;5068537;28;20471;-70
2023/02/13 11:00:17;;;;;;;12.65;9.10;;;;;;;11.41;34.40;97421.47;5074135;28;20050;-70
2023/02/13 11:02:42;;;;;;;13.77;9.20;;;;;;;11.48;34.13;97417.28;5073498;28;20120;-70
2023/02/13 11:05:21;;;;;;;12.68;9.00;;;;;;;11.59;34.67;97424.28;5072384;28;20067;-69
2023/02/13 11:07:46;;;;;;;;;;;;;;;11.62;34.91;97418.69;5073244;28;20450;-69
2023/02/13 11:10:22;;;;;;;12.13;8.80;;;;;;;11.93;33.85;97416.84;5070611;28;19912;-69
2023/02/13 11:12:47;;;;;;;13.60;9.40;;;;;;;11.84;34.13;97419.38;5072933;28;20496;-70
2023/02/13 11:15:26;;;;;;;8.32;6.03;;;;;;;12.35;33.63;97415.66;5073168;28;20123;-70
2023/02/13 11:17:56;;;;;;;11.23;7.95;;;;;;;12.20;33.26;97415.28;5071096;28;20020;-70
2023/02/13 11:20:24;;;;;;;9.32;6.28;;;;;;;12.46;33.08;97414.63;5073554;28;20059;-70
2023/02/13 11:22:49;;;;;;;10.77;7.88;;;;;;;12.26;33.24;97414.69;5057273;28;20111;-70
2023/02/13 11:25:19;;;;;;;10.60;7.65;;;;;;;12.37;33.01;97414.50;5070669;28;20040;-70
2023/02/13 11:27:44;;;;;;;9.55;6.28;;;;;;;12.32;33.14;97408.78;5070822;28;20051;-70
2023/02/13 11:30:21;;;;;;;8.77;6.03;;;;;;;12.71;32.95;97406.94;5072277;28;20051;-70
2023/02/13 11:32:59;;;;;;;5.33;3.80;;;;;;;12.78;32.27;97400.00;5074038;28;20040;-70
2023/02/13 11:35:27;;;;;;;10.52;7.97;;;;;;;12.74;32.96;97394.13;5054288;28;20283;-69
2023/02/13 11:38:10;;;;;;;;;;;;;;;12.70;32.16;97397.22;5070124;28;20035;-69
2023/02/13 11:40:36;;;;;;;4.00;2.97;;;;;;;12.02;32.62;97397.28;5076509;28;19920;-69
2023/02/13 11:43:04;;;;;;;4.00;3.20;;;;;;;12.57;30.10;97397.59;5072743;28;20439;-69
2023/02/13 11:45:29;;;;;;;5.47;3.70;;;;;;;12.85;31.23;97394.91;5060426;28;20065;-69
2023/02/13 11:47:54;;;;;;;5.25;2.92;;;;;;;13.07;29.89;97400.88;5068918;28;20040;-69
2023/02/13 11:50:33;;;;;;;4.78;2.95;;;;;;;12.88;30.57;97390.09;5051892;28;20436;-69
2023/02/13 11:53:07;;;;;;;4.30;2.90;;;;;;;12.82;30.75;97393.41;5065547;28;20513;-68
2023/02/13 11:55:41;;;;;;;4.32;3.22;;;;;;;13.08;31.39;97389.19;5069196;28;20497;-69
2023/02/13 11:58:09;;;;;;;3.42;2.92;;;;;;;12.71;30.78;97386.41;5071345;28;20146;-68
2023/02/13 12:00:40;;;;;;;4.22;3.22;;;;;;;13.15;31.40;97390.25;5072538;28;20072;-68
2023/02/13 12:03:20;;;;;;;4.88;2.70;;;;;;;11.96;31.48;97389.84;5070646;28;20286;-68
2023/02/13 12:06:15;;;;;;;3.20;2.60;;;;;;;10.68;32.80;97398.56;5070692;28;20134;-68
2023/02/13 12:08:42;;;;;;;5.28;3.78;;;;;;;10.41;35.18;97392.88;5061862;28;20040;-68
2023/02/13 12:11:29;;;;;;;2.90;2.50;;;;;;;11.90;34.00;97384.09;5090210;28;20020;-68
2023/02/13 12:13:54;;;;;;;2.58;2.30;;;;;;;13.13;31.21;97387.72;5068321;28;20282;-68
2023/02/13 12:16:34;;;;;;;3.53;2.50;;;;;;;13.16;30.67;97386.59;5067936;28;20077;-69
2023/02/13 12:19:03;;;;;;;5.25;3.80;;;;;;;13.05;31.16;97377.78;5052766;28;20086;-64
2023/02/13 12:21:43;;;;;;;7.35;4.80;;;;;;;12.65;31.90;97369.13;5060813;28;20028;-63
2023/02/13 12:24:33;;;;;;;4.90;3.90;;;;;;;13.72;30.76;97362.34;5070130;28;20078;-68
2023/02/13 12:27:22;;;;;;;3.50;3.08;;;;;;;14.38;29.05;97359.28;5069224;28;20073;-75
2023/02/13 12:30:03;;;;;;;5.90;4.00;;;;;;;14.96;27.49;97362.22;5066967;28;20066;-74